Farley, Iowa
Current Conditions -  °F | °C
As of 12:53 AM on Saturday 20 Dec 2014 (Local Time) from KDBQ Reporting Station
Overcast Overcast  
Wind Chill: -8°   Ceiling: 2900
Heat Index: -3°   Visibility: 7mi
Dew Point: -5°   Wind: 8mph
Humidity: 88%   Direction: 190°S
Pressure: 30.24"   Gusts: NA
Location:  42.44°N, 91.01°W
Report Text: KDBQ 200653Z AUTO 19007KT 7SM BKN029 OVC035 M03/M05 A3024 RMK AO2 SLP255 T10331050
Loading
Personal Weather Stations






























Interactive Weather Map New forecast layout! Learn more

10-Day Weather Forecast

Advertisements
Track Severe Weather on mobile